createdAt,value
2022-10-30T00:01:19.840Z,80.60
2022-10-30T00:03:48.162Z,80.70
2022-10-30T00:08:45.614Z,80.80
2022-10-30T00:11:15.384Z,81.60
2022-10-30T00:13:45.086Z,81.40
2022-10-30T00:16:13.421Z,81.30
2022-10-30T00:18:42.265Z,81.60
2022-10-30T00:21:13.007Z,81.60
2022-10-30T00:23:46.751Z,81.80
2022-10-30T00:26:16.963Z,81.80
2022-10-30T00:28:45.223Z,81.90
2022-10-30T00:31:13.472Z,82.30
2022-10-30T00:33:41.771Z,82.40
2022-10-30T00:36:10.491Z,82.50
2022-10-30T00:38:38.787Z,82.90
2022-10-30T00:41:07.145Z,83.10
2022-10-30T00:43:40.172Z,82.80
2022-10-30T00:46:16.730Z,83.90
2022-10-30T00:48:49.103Z,83.80
2022-10-30T00:51:18.272Z,83.80
2022-10-30T00:53:48.066Z,83.90
2022-10-30T00:56:19.672Z,83.80
2022-10-30T00:58:55.966Z,83.70
2022-10-30T01:01:28.277Z,83.30
2022-10-30T01:03:59.522Z,83.90
2022-10-30T01:06:27.972Z,83.60
2022-10-30T01:08:59.947Z,84.30
2022-10-30T01:11:28.669Z,84.00
2022-10-30T01:14:03.883Z,83.90
2022-10-30T01:16:56.308Z,83.50
2022-10-30T01:19:32.423Z,84.60
2022-10-30T01:22:20.309Z,84.30
2022-10-30T01:25:00.079Z,84.50
2022-10-30T01:27:41.125Z,84.30
2022-10-30T01:30:23.879Z,84.60
2022-10-30T01:33:08.597Z,84.90
2022-10-30T01:35:45.181Z,84.70
2022-10-30T01:38:22.821Z,84.70
2022-10-30T01:40:51.585Z,85.40
2022-10-30T01:43:19.829Z,85.80
2022-10-30T01:46:08.469Z,86.10
2022-10-30T01:49:05.807Z,85.80
2022-10-30T01:51:50.558Z,85.50
2022-10-30T01:54:33.392Z,85.60
2022-10-30T01:57:10.485Z,85.10
2022-10-30T01:59:41.543Z,84.60
2022-10-30T02:02:11.594Z,85.50
2022-10-30T02:04:40.720Z,86.00
2022-10-30T02:07:09.879Z,85.80
2022-10-30T02:09:38.533Z,86.00
2022-10-30T02:12:08.216Z,86.00
2022-10-30T02:14:42.085Z,86.10
2022-10-30T02:17:12.775Z,86.70
2022-10-30T02:19:41.196Z,87.00
2022-10-30T02:22:11.147Z,86.90
2022-10-30T02:24:39.667Z,86.60
2022-10-30T02:27:07.899Z,86.00
2022-10-30T02:29:36.196Z,86.30
2022-10-30T02:32:05.023Z,86.60
2022-10-30T02:34:33.464Z,86.40
2022-10-30T02:37:01.785Z,86.70
2022-10-30T02:39:31.406Z,86.30
2022-10-30T02:42:01.934Z,85.90
2022-10-30T02:44:30.225Z,86.80
2022-10-30T02:46:58.577Z,86.50
2022-10-30T02:49:26.850Z,86.20
2022-10-30T02:51:55.165Z,86.10
2022-10-30T02:54:23.414Z,86.90
2022-10-30T02:56:53.107Z,87.10
2022-10-30T02:59:21.645Z,87.30
2022-10-30T03:01:50.058Z,87.30
2022-10-30T03:04:18.547Z,87.40
2022-10-30T03:06:46.815Z,87.50
2022-10-30T03:09:15.091Z,87.20
2022-10-30T03:11:44.461Z,87.50
2022-10-30T03:14:14.348Z,87.40
2022-10-30T03:16:42.641Z,87.00
2022-10-30T03:19:11.009Z,87.20
2022-10-30T03:21:39.280Z,87.30
2022-10-30T03:24:08.228Z,87.60
2022-10-30T03:26:36.534Z,87.50
2022-10-30T03:29:05.113Z,87.40
2022-10-30T03:31:34.953Z,87.30
2022-10-30T03:34:03.675Z,87.40
2022-10-30T03:36:31.913Z,87.60
2022-10-30T03:39:00.219Z,87.70
2022-10-30T03:41:28.441Z,87.50
2022-10-30T03:43:56.708Z,87.30
2022-10-30T03:46:24.990Z,87.50
2022-10-30T03:48:54.574Z,87.70
2022-10-30T03:51:22.885Z,88.10
2022-10-30T03:53:51.091Z,88.00
2022-10-30T03:56:20.325Z,87.90
2022-10-30T03:58:48.546Z,87.60
2022-10-30T04:01:17.072Z,87.60
2022-10-30T04:03:45.418Z,87.60
2022-10-30T04:06:15.108Z,87.50
2022-10-30T04:08:43.439Z,87.60
2022-10-30T04:11:12.299Z,87.70
2022-10-30T04:13:40.640Z,87.10
2022-10-30T04:16:09.238Z,87.60
2022-10-30T04:18:37.510Z,87.70
2022-10-30T04:21:06.001Z,87.60
2022-10-30T04:23:35.613Z,88.00
2022-10-30T04:26:03.911Z,88.40
2022-10-30T04:28:32.148Z,88.20
2022-10-30T04:31:00.398Z,87.90
2022-10-30T04:33:28.782Z,87.60
2022-10-30T04:35:57.198Z,87.40
2022-10-30T04:38:25.439Z,87.80
2022-10-30T04:40:55.040Z,87.60
2022-10-30T04:43:23.289Z,87.70
2022-10-30T04:45:51.554Z,88.10
2022-10-30T04:48:20.250Z,88.30
2022-10-30T04:50:48.700Z,88.60
2022-10-30T04:53:19.513Z,88.20
2022-10-30T04:55:48.003Z,87.70
2022-10-30T04:58:17.637Z,88.10
2022-10-30T05:00:45.974Z,88.60
2022-10-30T05:03:21.073Z,88.40
2022-10-30T05:05:57.146Z,88.70
2022-10-30T05:08:25.559Z,88.70
2022-10-30T05:10:54.515Z,88.50
2022-10-30T05:13:24.726Z,88.50
2022-10-30T05:15:55.119Z,88.20
2022-10-30T05:18:23.388Z,88.00
2022-10-30T05:20:51.686Z,88.00
2022-10-30T05:23:19.948Z,88.30
2022-10-30T05:25:48.426Z,88.20
2022-10-30T05:28:16.847Z,88.50
2022-10-30T05:30:46.519Z,88.30
2022-10-30T05:33:18.247Z,88.40
2022-10-30T05:35:46.559Z,88.60
2022-10-30T05:38:14.904Z,88.50
2022-10-30T05:40:43.165Z,88.50
2022-10-30T05:43:11.378Z,88.40
2022-10-30T05:45:39.743Z,88.80
2022-10-30T05:48:09.528Z,89.20
2022-10-30T05:50:37.833Z,88.60
2022-10-30T05:53:07.310Z,88.60
2022-10-30T05:55:36.536Z,88.50
2022-10-30T05:58:06.990Z,88.50
2022-10-30T06:00:37.265Z,88.90
2022-10-30T06:03:10.724Z,89.40
2022-10-30T06:05:39.717Z,89.00
2022-10-30T06:08:09.258Z,88.80
2022-10-30T06:10:38.066Z,89.00
2022-10-30T06:13:08.481Z,88.50
2022-10-30T06:15:36.799Z,87.90
2022-10-30T06:18:05.504Z,87.80
2022-10-30T06:20:35.151Z,88.00
2022-10-30T06:23:06.455Z,88.50
2022-10-30T06:25:41.067Z,88.70
2022-10-30T06:28:11.317Z,88.80
2022-10-30T06:30:39.681Z,88.60
2022-10-30T06:33:08.533Z,88.70
2022-10-30T06:35:38.192Z,88.80
2022-10-30T06:38:06.454Z,88.50
2022-10-30T06:40:34.733Z,88.60
2022-10-30T06:43:03.291Z,88.80
2022-10-30T06:45:31.706Z,89.40
2022-10-30T06:48:01.762Z,89.50
2022-10-30T06:50:30.616Z,89.20
2022-10-30T06:53:00.256Z,89.10
2022-10-30T06:55:28.577Z,89.40
2022-10-30T06:57:58.100Z,89.10
2022-10-30T07:00:27.230Z,89.50
2022-10-30T07:03:00.698Z,89.50
2022-10-30T07:05:29.396Z,89.80
2022-10-30T07:07:59.912Z,89.70
2022-10-30T07:10:28.257Z,89.70
2022-10-30T07:12:58.910Z,89.70
2022-10-30T07:15:28.311Z,89.30
2022-10-30T07:17:59.590Z,89.40
2022-10-30T07:20:30.312Z,89.70
2022-10-30T07:23:00.175Z,90.20
2022-10-30T07:25:29.042Z,90.20
2022-10-30T07:27:58.857Z,90.40
2022-10-30T07:30:28.559Z,90.10
2022-10-30T07:33:02.325Z,90.30
2022-10-30T07:35:31.567Z,90.10
2022-10-30T07:38:05.524Z,90.00
2022-10-30T07:40:34.619Z,89.90
2022-10-30T07:43:04.953Z,90.00
2022-10-30T07:45:34.094Z,90.00
2022-10-30T07:48:02.921Z,89.80
2022-10-30T07:50:31.416Z,89.30
2022-10-30T07:52:59.881Z,88.90
2022-10-30T07:55:29.503Z,88.60
2022-10-30T07:57:58.049Z,88.40
2022-10-30T08:00:26.530Z,88.00
2022-10-30T08:02:59.177Z,87.90
2022-10-30T08:05:28.966Z,87.70
2022-10-30T08:07:59.108Z,87.50
2022-10-30T08:10:29.283Z,87.30
2022-10-30T08:12:57.578Z,87.20
2022-10-30T08:15:26.592Z,86.50
2022-10-30T08:17:55.437Z,85.80
2022-10-30T08:20:26.130Z,86.10
2022-10-30T08:22:56.698Z,85.40
2022-10-30T08:25:29.418Z,85.40
2022-10-30T08:28:00.205Z,84.30
2022-10-30T08:30:34.379Z,83.40
2022-10-30T08:33:05.513Z,83.70
2022-10-30T08:38:07.488Z,82.90
2022-10-30T08:40:37.249Z,82.80
2022-10-30T08:43:05.673Z,82.50
2022-10-30T08:45:34.100Z,81.50
2022-10-30T08:48:04.610Z,81.40
2022-10-30T08:50:35.509Z,80.80
2022-10-30T08:53:04.917Z,81.00
2022-10-30T08:55:34.598Z,80.30
2022-10-30T08:58:04.658Z,80.00
2022-10-30T09:00:33.143Z,79.70
2022-10-30T09:03:02.203Z,78.80
2022-10-30T09:05:30.936Z,77.60
2022-10-30T09:08:01.457Z,77.40
2022-10-30T09:10:30.766Z,77.30
2022-10-30T09:13:00.129Z,77.40
2022-10-30T09:15:30.122Z,78.20
2022-10-30T09:18:00.064Z,77.10
2022-10-30T09:20:29.940Z,76.90
2022-10-30T09:22:58.722Z,76.70
2022-10-30T09:25:27.608Z,76.70
2022-10-30T09:27:55.888Z,76.50
2022-10-30T09:30:24.655Z,75.70
2022-10-30T09:32:58.830Z,75.70
2022-10-30T09:35:27.902Z,75.60
2022-10-30T09:37:57.151Z,75.70
2022-10-30T09:40:39.812Z,75.90
2022-10-30T09:43:20.881Z,74.80
2022-10-30T09:46:17.536Z,74.50
2022-10-30T09:49:31.965Z,73.70
2022-10-30T09:52:24.182Z,74.30
2022-10-30T09:55:04.942Z,74.00
2022-10-30T09:57:43.722Z,74.00
2022-10-30T10:00:15.037Z,73.70
2022-10-30T10:02:58.476Z,73.00
2022-10-30T10:05:33.732Z,73.30
2022-10-30T10:08:08.021Z,73.30
2022-10-30T10:10:41.992Z,73.90
2022-10-30T10:13:24.593Z,72.40
2022-10-30T10:15:56.875Z,72.20
2022-10-30T10:21:15.394Z,72.80
2022-10-30T10:23:49.550Z,72.70
2022-10-30T10:26:36.688Z,72.20
2022-10-30T10:29:38.712Z,70.40
2022-10-30T10:32:37.085Z,70.10
2022-10-30T10:35:36.740Z,69.30
2022-10-30T10:38:18.754Z,68.80
2022-10-30T10:41:01.214Z,69.40
2022-10-30T10:43:44.959Z,68.40
2022-10-30T10:46:32.235Z,67.80
2022-10-30T10:49:18.698Z,67.50
2022-10-30T10:51:53.353Z,67.00
2022-10-30T10:54:29.426Z,66.40
2022-10-30T10:56:59.715Z,66.20
2022-10-30T10:59:34.478Z,64.80
2022-10-30T11:02:30.318Z,65.90
2022-10-30T11:05:06.228Z,66.10
2022-10-30T11:07:41.167Z,65.90
2022-10-30T11:10:16.771Z,65.40
2022-10-30T11:12:45.477Z,65.80
2022-10-30T11:15:38.582Z,66.10
2022-10-30T11:18:09.558Z,66.50
2022-10-30T11:20:49.194Z,65.80
2022-10-30T11:23:38.758Z,64.90
2022-10-30T11:26:35.107Z,65.70
2022-10-30T11:29:07.479Z,65.70
2022-10-30T11:31:40.068Z,64.20
2022-10-30T11:34:36.714Z,65.30
2022-10-30T11:37:06.453Z,64.90
2022-10-30T11:39:36.343Z,66.10
2022-10-30T11:42:15.921Z,66.30
2022-10-30T11:44:47.089Z,64.60
2022-10-30T11:47:17.380Z,64.90
2022-10-30T11:49:49.901Z,65.30
2022-10-30T11:52:22.790Z,64.90
2022-10-30T11:54:55.960Z,65.40
2022-10-30T11:57:34.407Z,65.00
2022-10-30T12:00:05.807Z,65.10
2022-10-30T12:02:43.921Z,65.10
2022-10-30T12:05:38.880Z,64.50
2022-10-30T12:08:23.080Z,64.40
2022-10-30T12:11:02.065Z,65.50
2022-10-30T12:13:39.645Z,66.50
2022-10-30T12:16:15.203Z,65.90
2022-10-30T12:18:55.075Z,65.30
2022-10-30T12:21:23.406Z,65.30
2022-10-30T12:23:57.089Z,64.70
2022-10-30T12:26:27.410Z,65.50
2022-10-30T12:29:01.879Z,65.90
2022-10-30T12:31:39.305Z,65.20
2022-10-30T12:34:41.389Z,64.70
2022-10-30T12:37:17.627Z,63.50
2022-10-30T12:40:01.725Z,62.80
2022-10-30T12:42:32.791Z,62.90
2022-10-30T12:45:15.062Z,62.80
2022-10-30T12:47:48.496Z,64.10
2022-10-30T12:50:25.490Z,64.00
2022-10-30T12:53:02.402Z,64.50
2022-10-30T12:55:37.661Z,63.00
2022-10-30T12:58:16.578Z,63.30
2022-10-30T13:00:54.515Z,64.20
2022-10-30T13:03:31.385Z,65.10
2022-10-30T13:06:08.232Z,64.80
2022-10-30T13:08:42.142Z,65.00
2022-10-30T13:11:20.666Z,63.30
2022-10-30T13:13:51.432Z,64.10
2022-10-30T13:16:27.062Z,66.00
2022-10-30T13:19:02.283Z,66.00
2022-10-30T13:21:38.553Z,65.30
2022-10-30T13:24:12.827Z,66.10
2022-10-30T13:26:47.167Z,64.70
2022-10-30T13:29:23.406Z,63.50
2022-10-30T13:32:28.345Z,64.20
2022-10-30T13:35:10.286Z,63.90
2022-10-30T13:37:43.395Z,64.30
2022-10-30T13:40:22.264Z,65.00
2022-10-30T13:43:05.939Z,65.70
2022-10-30T13:46:14.058Z,64.30
2022-10-30T13:48:59.806Z,64.50
2022-10-30T13:51:38.742Z,65.00
2022-10-30T13:54:23.578Z,65.80
2022-10-30T13:56:54.054Z,64.80
2022-10-30T13:59:39.079Z,64.90
2022-10-30T14:02:22.121Z,66.30
2022-10-30T14:04:58.770Z,66.30
2022-10-30T14:07:35.001Z,66.40
2022-10-30T14:10:08.814Z,68.00
2022-10-30T14:13:14.440Z,66.30
2022-10-30T14:15:44.909Z,67.20
2022-10-30T14:18:45.605Z,67.40
2022-10-30T14:21:45.003Z,68.50
2022-10-30T14:24:20.339Z,69.70
2022-10-30T14:26:53.169Z,69.60
2022-10-30T14:29:46.757Z,70.10
2022-10-30T14:32:41.803Z,68.00
2022-10-30T14:35:33.176Z,68.10
2022-10-30T14:38:27.943Z,68.40
2022-10-30T14:41:16.783Z,68.10
2022-10-30T14:44:26.421Z,69.30
2022-10-30T14:47:13.109Z,70.40
2022-10-30T14:49:51.559Z,71.90
2022-10-30T14:52:36.426Z,72.30
2022-10-30T14:55:25.743Z,72.30
2022-10-30T14:58:16.691Z,72.10
2022-10-30T15:00:45.222Z,72.00
2022-10-30T15:03:26.763Z,72.00
2022-10-30T15:05:59.728Z,72.60
2022-10-30T15:08:42.947Z,72.40
2022-10-30T15:12:07.034Z,72.90
2022-10-30T15:14:54.150Z,72.60
2022-10-30T15:17:30.972Z,73.00
2022-10-30T15:20:03.858Z,73.00
2022-10-30T15:22:34.057Z,72.40
2022-10-30T15:25:03.170Z,73.00
2022-10-30T15:27:33.284Z,73.00
2022-10-30T15:30:05.216Z,73.90
2022-10-30T15:32:33.482Z,74.60
2022-10-30T15:35:05.081Z,74.40
2022-10-30T15:37:33.866Z,74.00
2022-10-30T15:40:17.951Z,73.50
2022-10-30T15:42:48.149Z,74.50
2022-10-30T15:45:22.372Z,74.90
2022-10-30T15:47:59.600Z,75.20
2022-10-30T15:50:28.326Z,75.40
2022-10-30T15:52:57.609Z,75.60
2022-10-30T15:55:30.452Z,75.20
2022-10-30T15:58:04.235Z,75.60
2022-10-30T16:00:37.809Z,75.00
2022-10-30T16:03:08.740Z,75.30
2022-10-30T16:05:37.041Z,75.80
2022-10-30T16:08:13.721Z,75.80
2022-10-30T16:10:44.544Z,76.20
2022-10-30T16:13:14.009Z,76.50
2022-10-30T16:15:47.407Z,76.90
2022-10-30T16:18:20.837Z,77.20
2022-10-30T16:20:53.627Z,77.70
2022-10-30T16:23:22.914Z,78.20
2022-10-30T16:25:56.659Z,78.70
2022-10-30T16:28:28.538Z,78.60
2022-10-30T16:31:00.193Z,78.70
2022-10-30T16:33:30.915Z,79.10
2022-10-30T16:36:01.013Z,79.50
2022-10-30T16:38:34.026Z,80.00
2022-10-30T16:41:02.873Z,80.40
2022-10-30T16:43:36.605Z,80.50
2022-10-30T16:46:41.412Z,80.80
2022-10-30T16:49:17.598Z,80.90
2022-10-30T16:51:45.935Z,80.30
2022-10-30T16:54:23.794Z,80.80
2022-10-30T16:56:55.323Z,81.10
2022-10-30T16:59:33.958Z,81.60
2022-10-30T17:02:07.906Z,81.10
2022-10-30T17:04:36.813Z,81.60
2022-10-30T17:07:19.406Z,81.80
2022-10-30T17:09:49.814Z,82.20
2022-10-30T17:12:22.536Z,81.90
2022-10-30T17:14:54.425Z,82.40
2022-10-30T17:17:31.438Z,82.10
2022-10-30T17:20:03.254Z,82.10
2022-10-30T17:22:32.311Z,82.60
2022-10-30T17:25:01.499Z,82.60
2022-10-30T17:27:48.350Z,82.50
2022-10-30T17:30:47.913Z,83.10
2022-10-30T17:33:36.461Z,83.30
2022-10-30T17:36:06.509Z,83.40
2022-10-30T17:38:35.288Z,83.20
2022-10-30T17:41:04.272Z,83.50
2022-10-30T17:43:36.081Z,83.40
2022-10-30T17:46:05.353Z,83.60
2022-10-30T17:48:35.090Z,83.20
2022-10-30T17:51:03.382Z,83.10
2022-10-30T17:53:31.764Z,83.20
2022-10-30T17:56:04.099Z,83.60
2022-10-30T17:58:32.389Z,83.50
2022-10-30T18:01:01.379Z,83.50
2022-10-30T18:03:30.148Z,83.70
2022-10-30T18:06:03.019Z,83.70
2022-10-30T18:08:31.588Z,83.60
2022-10-30T18:10:59.824Z,83.50
2022-10-30T18:13:28.089Z,83.60
2022-10-30T18:15:59.315Z,83.50
2022-10-30T18:18:27.619Z,83.60
2022-10-30T18:20:55.911Z,83.80
2022-10-30T18:26:17.225Z,84.00
2022-10-30T18:28:45.951Z,84.00
2022-10-30T18:31:16.032Z,84.00
2022-10-30T18:33:45.479Z,84.00
2022-10-30T18:36:16.541Z,83.90
2022-10-30T18:38:47.302Z,83.60
2022-10-30T18:41:20.703Z,83.70
2022-10-30T18:43:49.128Z,83.80
2022-10-30T18:46:17.800Z,83.50
2022-10-30T18:48:46.498Z,83.70
2022-10-30T18:51:21.831Z,83.60
2022-10-30T18:53:56.787Z,83.90
2022-10-30T18:56:27.501Z,83.80
2022-10-30T18:59:01.682Z,84.10
2022-10-30T19:01:32.314Z,84.00
2022-10-30T19:04:03.574Z,84.40
2022-10-30T19:06:32.925Z,84.40
2022-10-30T19:09:02.583Z,84.70
2022-10-30T19:11:31.882Z,84.90
2022-10-30T19:14:00.958Z,85.10
2022-10-30T19:16:29.593Z,85.00
2022-10-30T19:18:57.927Z,84.90
2022-10-30T19:21:28.039Z,84.50
2022-10-30T19:23:57.153Z,84.30
2022-10-30T19:26:26.816Z,84.80
2022-10-30T19:28:55.062Z,84.80
2022-10-30T19:31:23.315Z,85.00
2022-10-30T19:33:54.613Z,85.30
2022-10-30T19:36:30.660Z,85.20
2022-10-30T19:39:03.020Z,84.70
2022-10-30T19:41:38.741Z,85.10
2022-10-30T19:44:07.527Z,85.70
2022-10-30T19:46:35.835Z,85.70
2022-10-30T19:49:17.421Z,85.50
2022-10-30T19:51:45.711Z,84.90
2022-10-30T19:54:14.121Z,84.30
2022-10-30T19:56:44.357Z,84.80
2022-10-30T19:59:14.978Z,85.60
2022-10-30T20:01:44.599Z,85.60
2022-10-30T20:04:13.621Z,85.80
2022-10-30T20:06:41.975Z,85.80
2022-10-30T20:09:12.297Z,85.90
2022-10-30T20:11:40.715Z,86.10
2022-10-30T20:14:10.481Z,86.10
2022-10-30T20:16:39.238Z,85.80
2022-10-30T20:19:28.690Z,85.70
2022-10-30T20:21:57.014Z,85.90
2022-10-30T20:24:25.589Z,86.40
2022-10-30T20:26:57.136Z,86.50
2022-10-30T20:29:26.971Z,86.00
2022-10-30T20:31:55.264Z,86.10
2022-10-30T20:34:23.543Z,86.10
2022-10-30T20:36:51.863Z,85.80
2022-10-30T20:39:20.138Z,85.70
2022-10-30T20:41:48.523Z,86.10
2022-10-30T20:44:16.789Z,86.70
2022-10-30T20:46:46.432Z,87.30
2022-10-30T20:49:17.978Z,87.10
2022-10-30T20:51:47.455Z,87.20
2022-10-30T20:54:15.864Z,87.50
2022-10-30T20:56:44.157Z,87.10
2022-10-30T20:59:12.460Z,87.00
2022-10-30T21:01:40.885Z,87.10
2022-10-30T21:04:10.724Z,87.80
2022-10-30T21:06:39.046Z,87.40
2022-10-30T21:09:07.383Z,87.80
2022-10-30T21:11:35.776Z,87.90
2022-10-30T21:14:04.046Z,87.80
2022-10-30T21:16:32.351Z,87.60
2022-10-30T21:19:00.641Z,88.20
2022-10-30T21:21:30.526Z,88.10
2022-10-30T21:23:59.034Z,88.10
2022-10-30T21:26:27.437Z,88.10
2022-10-30T21:28:56.537Z,88.00
2022-10-30T21:31:24.806Z,87.80
2022-10-30T21:33:53.171Z,87.20
2022-10-30T21:36:22.304Z,87.40
2022-10-30T21:38:51.972Z,87.90
2022-10-30T21:41:24.877Z,88.20
2022-10-30T21:43:54.646Z,88.30
2022-10-30T21:46:24.821Z,88.50
2022-10-30T21:48:53.958Z,88.50
2022-10-30T21:51:24.502Z,88.60
2022-10-30T21:53:55.617Z,87.50
2022-10-30T21:56:25.119Z,87.80
2022-10-30T21:58:53.856Z,87.70
2022-10-30T22:01:25.076Z,87.70
2022-10-30T22:03:53.567Z,88.20
2022-10-30T22:06:23.298Z,88.30
2022-10-30T22:08:55.428Z,88.40
2022-10-30T22:11:26.330Z,88.20
2022-10-30T22:13:56.135Z,88.20
2022-10-30T22:16:25.259Z,88.30
2022-10-30T22:18:53.511Z,88.00
2022-10-30T22:21:21.894Z,87.90
2022-10-30T22:23:50.184Z,87.70
2022-10-30T22:26:22.357Z,87.50
2022-10-30T22:28:54.666Z,88.10
2022-10-30T22:31:24.850Z,88.40
2022-10-30T22:33:53.669Z,88.60
2022-10-30T22:36:24.564Z,88.50
2022-10-30T22:38:57.834Z,88.70
2022-10-30T22:41:30.014Z,88.50
2022-10-30T22:44:01.328Z,88.90
2022-10-30T22:46:32.083Z,88.70
2022-10-30T22:49:00.751Z,88.80
2022-10-30T22:51:29.021Z,88.60
2022-10-30T22:53:59.704Z,88.90
2022-10-30T22:56:31.805Z,89.00
2022-10-30T22:59:03.224Z,88.60
2022-10-30T23:01:34.499Z,88.70
2022-10-30T23:04:04.830Z,88.60
2022-10-30T23:06:34.414Z,88.60
2022-10-30T23:09:06.786Z,88.60
2022-10-30T23:11:36.725Z,88.70
2022-10-30T23:14:05.066Z,88.70
2022-10-30T23:16:33.365Z,88.60
2022-10-30T23:19:02.655Z,88.70
2022-10-30T23:21:33.119Z,88.70
2022-10-30T23:24:04.487Z,88.60
2022-10-30T23:26:36.416Z,88.60
2022-10-30T23:29:05.508Z,88.50
2022-10-30T23:31:36.422Z,88.40
2022-10-30T23:34:07.935Z,88.20
2022-10-30T23:36:36.750Z,88.50
2022-10-30T23:39:07.761Z,88.20
2022-10-30T23:41:37.213Z,88.50
2022-10-30T23:44:08.132Z,88.60
2022-10-30T23:46:37.124Z,88.50
2022-10-30T23:49:06.267Z,88.40
2022-10-30T23:51:35.123Z,88.30
2022-10-30T23:54:03.550Z,88.60
2022-10-30T23:56:31.831Z,88.40
2022-10-30T23:59:02.361Z,88.60
